createdAt,value
2023-03-22T00:02:27.338Z,100529.91
2023-03-22T00:04:56.912Z,100524.69
2023-03-22T00:07:25.092Z,100513.38
2023-03-22T00:09:53.072Z,100518.59
2023-03-22T00:12:20.911Z,100515.06
2023-03-22T00:14:49.442Z,100515.03
2023-03-22T00:17:17.414Z,100509.78
2023-03-22T00:19:45.269Z,100510.63
2023-03-22T00:22:14.764Z,100517.59
2023-03-22T00:24:42.656Z,100510.63
2023-03-22T00:27:10.421Z,100499.38
2023-03-22T00:29:38.347Z,100501.03
2023-03-22T00:32:06.644Z,100491.50
2023-03-22T00:34:34.881Z,100495.72
2023-03-22T00:37:04.183Z,100487.03
2023-03-22T00:39:33.439Z,100484.41
2023-03-22T00:42:01.289Z,100485.25
2023-03-22T00:44:29.083Z,100481.72
2023-03-22T00:46:56.980Z,100472.16
2023-03-22T00:49:25.505Z,100475.69
2023-03-22T00:51:53.592Z,100471.38
2023-03-22T00:54:21.789Z,100470.47
2023-03-22T00:56:51.059Z,100467.09
2023-03-22T00:59:19.098Z,100456.59
2023-03-22T01:01:46.949Z,100459.16
2023-03-22T01:04:18.124Z,100454.78
2023-03-22T01:06:47.099Z,100450.38
2023-03-22T01:09:15.174Z,100443.53
2023-03-22T01:11:43.832Z,100440.09
2023-03-22T01:14:16.745Z,100438.28
2023-03-22T01:16:44.573Z,100425.22
2023-03-22T01:19:12.697Z,100436.50
2023-03-22T01:21:40.630Z,100435.63
2023-03-22T01:24:09.006Z,100427.84
2023-03-22T01:26:37.832Z,100434.81
2023-03-22T01:29:06.365Z,100436.53
2023-03-22T01:31:35.595Z,100426.91
2023-03-22T01:34:03.514Z,100433.06
2023-03-22T01:36:32.241Z,100426.09
2023-03-22T01:39:00.501Z,100427.00
2023-03-22T01:41:28.582Z,100425.25
2023-03-22T01:44:09.064Z,100436.53
2023-03-22T01:46:38.373Z,100435.66
2023-03-22T01:49:09.903Z,100423.47
2023-03-22T01:51:37.973Z,100426.03
2023-03-22T01:54:19.214Z,100424.28
2023-03-22T01:56:48.376Z,100408.63
2023-03-22T01:59:26.095Z,100401.53
2023-03-22T02:02:19.253Z,100408.44
2023-03-22T02:04:57.822Z,100406.75
2023-03-22T02:07:28.208Z,100408.38
2023-03-22T02:09:57.730Z,100401.41
2023-03-22T02:12:39.847Z,100406.63
2023-03-22T02:15:24.981Z,100410.88
2023-03-22T02:18:29.841Z,100408.28
2023-03-22T02:21:13.930Z,100402.13
2023-03-22T02:24:17.723Z,100390.69
2023-03-22T02:27:21.797Z,100377.66
2023-03-22T02:29:57.667Z,100375.91
2023-03-22T02:32:55.429Z,100379.34
2023-03-22T02:35:44.400Z,100383.75
2023-03-22T02:38:36.702Z,100377.72
2023-03-22T02:41:14.255Z,100381.31
2023-03-22T02:43:54.509Z,100383.84
2023-03-22T02:46:26.074Z,100381.31
2023-03-22T02:49:00.836Z,100380.50
2023-03-22T02:51:35.578Z,100370.13
2023-03-22T02:54:08.519Z,100364.09
2023-03-22T02:56:41.603Z,100369.34
2023-03-22T02:59:12.565Z,100358.22
2023-03-22T03:01:44.423Z,100357.34
2023-03-22T03:04:17.558Z,100363.47
2023-03-22T03:06:49.219Z,100356.59
2023-03-22T03:09:20.097Z,100351.41
2023-03-22T03:11:51.724Z,100343.66
2023-03-22T03:14:22.177Z,100343.59
2023-03-22T03:17:00.871Z,100339.31
2023-03-22T03:19:36.368Z,100339.25
2023-03-22T03:22:16.542Z,100336.66
2023-03-22T03:24:50.222Z,100329.75
2023-03-22T03:27:27.362Z,100324.59
2023-03-22T03:30:01.525Z,100326.44
2023-03-22T03:32:38.331Z,100317.88
2023-03-22T03:35:22.368Z,100336.09
2023-03-22T03:37:54.487Z,100323.22
2023-03-22T03:40:27.276Z,100327.59
2023-03-22T03:43:00.002Z,100327.53
2023-03-22T03:45:27.940Z,100330.16
2023-03-22T03:48:00.536Z,100337.94
2023-03-22T03:50:29.075Z,100328.38
2023-03-22T03:52:57.964Z,100329.19
2023-03-22T03:55:28.111Z,100336.19
2023-03-22T03:57:57.368Z,100336.25
2023-03-22T04:00:25.202Z,100325.81
2023-03-22T04:03:27.274Z,100336.25
2023-03-22T04:06:13.191Z,100340.53
2023-03-22T04:08:46.527Z,100350.16
2023-03-22T04:11:17.005Z,100347.59
2023-03-22T04:13:49.834Z,100349.34
2023-03-22T04:16:21.666Z,100349.28
2023-03-22T04:18:49.849Z,100344.97
2023-03-22T04:21:17.754Z,100346.72
2023-03-22T04:23:52.352Z,100337.16
2023-03-22T04:26:20.687Z,100333.75
2023-03-22T04:29:09.949Z,100341.56
2023-03-22T04:31:42.978Z,100335.56
2023-03-22T04:34:27.615Z,100351.22
2023-03-22T04:37:02.324Z,100344.34
2023-03-22T04:40:06.654Z,100337.50
2023-03-22T04:42:46.102Z,100347.91
2023-03-22T04:45:21.501Z,100347.06
2023-03-22T04:47:57.099Z,100336.63
2023-03-22T04:50:25.063Z,100342.72
2023-03-22T04:52:58.431Z,100333.13
2023-03-22T04:55:27.667Z,100335.75
2023-03-22T04:57:55.914Z,100334.06
2023-03-22T05:00:30.077Z,100328.06
2023-03-22T05:02:58.890Z,100319.47
2023-03-22T05:05:52.588Z,100314.25
2023-03-22T05:08:21.827Z,100320.34
2023-03-22T05:10:52.190Z,100316.81
2023-03-22T05:13:20.237Z,100313.38
2023-03-22T05:15:50.238Z,100315.09
2023-03-22T05:18:24.613Z,100316.78
2023-03-22T05:20:54.932Z,100324.53
2023-03-22T05:23:25.515Z,100321.91
2023-03-22T05:25:58.266Z,100317.44
2023-03-22T05:28:28.451Z,100312.16
2023-03-22T05:31:18.061Z,100307.81
2023-03-22T05:33:55.550Z,100313.03
2023-03-22T05:36:26.074Z,100312.22
2023-03-22T05:39:10.255Z,100306.22
2023-03-22T05:41:38.273Z,100306.22
2023-03-22T05:44:06.731Z,100302.81
2023-03-22T05:46:38.825Z,100311.44
2023-03-22T05:49:28.816Z,100306.22
2023-03-22T05:51:57.248Z,100327.91
2023-03-22T05:54:31.238Z,100332.16
2023-03-22T05:56:59.546Z,100331.22
2023-03-22T05:59:28.134Z,100325.00
2023-03-22T06:01:57.475Z,100333.59
2023-03-22T06:04:25.655Z,100323.88
2023-03-22T06:06:59.344Z,100325.59
2023-03-22T06:09:42.633Z,100324.59
2023-03-22T06:12:17.033Z,100325.34
2023-03-22T06:14:50.842Z,100333.09
2023-03-22T06:17:38.513Z,100321.66
2023-03-22T06:20:11.255Z,100324.94
2023-03-22T06:22:42.005Z,100322.00
2023-03-22T06:25:12.024Z,100321.06
2023-03-22T06:27:46.526Z,100319.25
2023-03-22T06:30:14.982Z,100315.41
2023-03-22T06:33:06.125Z,100327.53
2023-03-22T06:35:37.985Z,100323.25
2023-03-22T06:38:07.933Z,100319.88
2023-03-22T06:40:38.130Z,100329.38
2023-03-22T06:43:07.445Z,100333.63
2023-03-22T06:45:39.001Z,100324.03
2023-03-22T06:48:09.723Z,100324.78
2023-03-22T06:50:47.277Z,100332.50
2023-03-22T06:53:19.903Z,100318.63
2023-03-22T06:55:48.046Z,100324.59
2023-03-22T06:58:19.688Z,100326.19
2023-03-22T07:00:47.586Z,100326.72
2023-03-22T07:03:17.845Z,100328.47
2023-03-22T07:06:02.323Z,100325.59
2023-03-22T07:08:32.339Z,100328.75
2023-03-22T07:11:00.355Z,100316.41
2023-03-22T07:13:28.753Z,100319.75
2023-03-22T07:16:02.485Z,100317.13
2023-03-22T07:18:44.991Z,100311.69
2023-03-22T07:21:13.038Z,100314.09
2023-03-22T07:23:43.163Z,100315.25
2023-03-22T07:26:15.381Z,100313.94
2023-03-22T07:28:46.546Z,100305.38
2023-03-22T07:31:16.426Z,100297.38
2023-03-22T07:34:16.288Z,100308.56
2023-03-22T07:36:59.262Z,100297.34
2023-03-22T07:39:28.956Z,100297.66
2023-03-22T07:41:57.838Z,100296.66
2023-03-22T07:44:25.699Z,100290.66
2023-03-22T07:47:39.972Z,100280.19
2023-03-22T07:50:30.168Z,100278.53
2023-03-22T07:53:00.941Z,100279.13
2023-03-22T07:55:28.955Z,100280.63
2023-03-22T07:57:57.511Z,100273.53
2023-03-22T08:00:26.164Z,100270.94
2023-03-22T08:03:06.900Z,100273.09
2023-03-22T08:05:54.774Z,100274.06
2023-03-22T08:08:22.903Z,100283.19
2023-03-22T08:10:51.727Z,100284.69
2023-03-22T08:13:19.948Z,100280.34
2023-03-22T08:15:47.974Z,100282.72
2023-03-22T08:18:15.961Z,100277.81
2023-03-22T08:20:46.269Z,100269.94
2023-03-22T08:23:31.688Z,100274.84
2023-03-22T08:26:36.265Z,100269.25
2023-03-22T08:29:13.036Z,100276.44
2023-03-22T08:31:41.086Z,100281.28
2023-03-22T08:34:09.019Z,100277.69
2023-03-22T08:36:39.002Z,100280.38
2023-03-22T08:39:09.540Z,100284.38
2023-03-22T08:41:48.034Z,100280.13
2023-03-22T08:44:16.120Z,100274.66
2023-03-22T08:46:43.993Z,100282.09
2023-03-22T08:49:11.928Z,100278.16
2023-03-22T08:51:43.916Z,100275.38
2023-03-22T08:54:23.942Z,100287.31
2023-03-22T08:56:54.793Z,100286.19
2023-03-22T08:59:34.336Z,100287.44
2023-03-22T09:02:22.398Z,100297.84
2023-03-22T09:04:50.486Z,100296.41
2023-03-22T09:07:18.883Z,100296.59
2023-03-22T09:09:53.921Z,100288.50
2023-03-22T09:12:22.376Z,100290.19
2023-03-22T09:14:50.484Z,100284.97
2023-03-22T09:17:21.318Z,100284.09
2023-03-22T09:19:57.688Z,100282.38
2023-03-22T09:22:32.028Z,100270.06
2023-03-22T09:25:02.572Z,100277.81
2023-03-22T09:27:31.119Z,100274.88
2023-03-22T09:29:59.187Z,100277.38
2023-03-22T09:32:27.522Z,100264.88
2023-03-22T09:35:00.682Z,100272.06
2023-03-22T09:37:36.154Z,100267.34
2023-03-22T09:40:07.657Z,100269.25
2023-03-22T09:42:39.648Z,100270.94
2023-03-22T09:45:16.935Z,100261.44
2023-03-22T09:47:46.892Z,100271.44
2023-03-22T09:50:19.822Z,100268.44
2023-03-22T09:52:48.373Z,100265.78
2023-03-22T09:55:23.377Z,100254.72
2023-03-22T09:58:00.511Z,100255.91
2023-03-22T10:00:34.481Z,100259.56
2023-03-22T10:03:10.746Z,100261.59
2023-03-22T10:05:42.977Z,100254.00
2023-03-22T10:08:23.850Z,100246.53
2023-03-22T10:10:53.510Z,100259.75
2023-03-22T10:13:26.766Z,100253.56
2023-03-22T10:15:56.938Z,100249.31
2023-03-22T10:18:27.987Z,100255.25
2023-03-22T10:21:01.661Z,100242.63
2023-03-22T10:23:35.184Z,100246.31
2023-03-22T10:26:07.548Z,100239.16
2023-03-22T10:28:40.234Z,100241.50
2023-03-22T10:31:15.984Z,100247.28
2023-03-22T10:33:51.071Z,100235.97
2023-03-22T10:36:23.857Z,100241.09
2023-03-22T10:38:55.760Z,100236.72
2023-03-22T10:41:26.768Z,100239.66
2023-03-22T10:43:58.318Z,100238.97
2023-03-22T10:46:29.631Z,100230.53
2023-03-22T10:48:59.912Z,100239.31
2023-03-22T10:51:30.605Z,100232.06
2023-03-22T10:54:01.484Z,100228.84
2023-03-22T10:56:30.725Z,100231.00
2023-03-22T10:58:58.842Z,100236.94
2023-03-22T11:01:29.887Z,100246.91
2023-03-22T11:04:00.785Z,100242.28
2023-03-22T11:06:32.776Z,100243.72
2023-03-22T11:09:02.568Z,100242.22
2023-03-22T11:11:36.495Z,100250.69
2023-03-22T11:14:09.386Z,100255.22
2023-03-22T11:16:45.343Z,100254.50
2023-03-22T11:19:19.081Z,100253.34
2023-03-22T11:21:47.076Z,100239.69
2023-03-22T11:24:15.615Z,100239.50
2023-03-22T11:27:03.928Z,100236.56
2023-03-22T11:29:41.866Z,100245.06
2023-03-22T11:32:22.970Z,100244.47
2023-03-22T11:35:01.439Z,100241.50
2023-03-22T11:37:29.495Z,100242.31
2023-03-22T11:40:05.154Z,100233.38
2023-03-22T11:42:35.249Z,100238.22
2023-03-22T11:45:03.233Z,100233.09
2023-03-22T11:47:38.143Z,100241.13
2023-03-22T11:50:09.524Z,100241.16
2023-03-22T11:52:38.666Z,100240.63
2023-03-22T11:55:06.897Z,100240.13
2023-03-22T11:57:38.280Z,100232.94
2023-03-22T12:00:14.578Z,100227.91
2023-03-22T12:02:47.715Z,100237.63
2023-03-22T12:05:21.468Z,100233.19
2023-03-22T12:07:55.330Z,100233.44
2023-03-22T12:10:27.667Z,100231.22
2023-03-22T12:13:01.176Z,100224.28
2023-03-22T12:15:32.781Z,100229.06
2023-03-22T12:18:07.811Z,100225.91
2023-03-22T12:20:43.020Z,100229.72
2023-03-22T12:23:16.467Z,100231.53
2023-03-22T12:25:50.596Z,100224.50
2023-03-22T12:28:23.832Z,100234.09
2023-03-22T12:30:56.144Z,100225.28
2023-03-22T12:33:27.808Z,100230.75
2023-03-22T12:35:59.418Z,100227.41
2023-03-22T12:38:36.245Z,100212.34
2023-03-22T12:41:08.555Z,100224.03
2023-03-22T12:43:46.722Z,100226.09
2023-03-22T12:46:20.338Z,100218.31
2023-03-22T12:48:52.148Z,100212.59
2023-03-22T12:51:19.993Z,100213.91
2023-03-22T12:53:51.921Z,100211.88
2023-03-22T12:56:22.976Z,100208.16
2023-03-22T12:58:55.497Z,100205.16
2023-03-22T13:01:31.440Z,100211.28
2023-03-22T13:03:59.877Z,100214.16
2023-03-22T13:06:34.201Z,100225.44
2023-03-22T13:09:16.144Z,100215.09
2023-03-22T13:11:46.217Z,100208.16
2023-03-22T13:14:57.720Z,100218.78
2023-03-22T13:17:46.853Z,100221.03
2023-03-22T13:20:38.275Z,100219.81
2023-03-22T13:23:26.946Z,100218.41
2023-03-22T13:26:04.999Z,100211.56
2023-03-22T13:28:37.336Z,100215.00
2023-03-22T13:31:07.593Z,100220.78
2023-03-22T13:33:37.092Z,100219.28
2023-03-22T13:36:08.954Z,100217.28
2023-03-22T13:38:42.377Z,100213.19
2023-03-22T13:41:22.076Z,100208.75
2023-03-22T13:43:52.027Z,100207.81
2023-03-22T13:46:50.573Z,100210.81
2023-03-22T13:49:37.207Z,100204.09
2023-03-22T13:52:09.226Z,100200.50
2023-03-22T13:54:42.264Z,100188.34
2023-03-22T13:57:37.558Z,100185.56
2023-03-22T14:00:14.410Z,100173.34
2023-03-22T14:02:45.955Z,100164.59
2023-03-22T14:05:17.559Z,100168.59
2023-03-22T14:07:50.708Z,100167.00
2023-03-22T14:10:22.653Z,100163.56
2023-03-22T14:12:53.460Z,100158.22
2023-03-22T14:15:24.693Z,100160.56
2023-03-22T14:17:57.624Z,100162.28
2023-03-22T14:20:27.724Z,100156.31
